sensor_id;sensor_type;location;lat;lon;timestamp;P1;durP1;ratioP1;P2;durP2;ratioP2
20251;SDS011;10284;58.364;15.550;2023-03-01T00:01:19;2.08;;;1.45;;
20251;SDS011;10284;58.364;15.550;2023-03-01T00:03:46;2.28;;;1.40;;
20251;SDS011;10284;58.364;15.550;2023-03-01T00:06:12;2.08;;;1.63;;
20251;SDS011;10284;58.364;15.550;2023-03-01T00:08:38;1.98;;;1.40;;
20251;SDS011;10284;58.364;15.550;2023-03-01T00:11:06;2.00;;;1.60;;
20251;SDS011;10284;58.364;15.550;2023-03-01T00:13:34;2.15;;;1.55;;
20251;SDS011;10284;58.364;15.550;2023-03-01T00:16:01;1.50;;;1.35;;
20251;SDS011;10284;58.364;15.550;2023-03-01T00:18:30;2.72;;;1.33;;
20251;SDS011;10284;58.364;15.550;2023-03-01T00:20:56;3.38;;;1.38;;
20251;SDS011;10284;58.364;15.550;2023-03-01T00:23:21;2.00;;;1.20;;
20251;SDS011;10284;58.364;15.550;2023-03-01T00:25:47;1.55;;;1.40;;
20251;SDS011;10284;58.364;15.550;2023-03-01T00:28:13;2.72;;;1.55;;
20251;SDS011;10284;58.364;15.550;2023-03-01T00:30:39;2.47;;;1.40;;
20251;SDS011;10284;58.364;15.550;2023-03-01T00:33:04;3.00;;;1.13;;
20251;SDS011;10284;58.364;15.550;2023-03-01T00:35:31;1.63;;;1.20;;
20251;SDS011;10284;58.364;15.550;2023-03-01T00:37:57;1.70;;;1.30;;
20251;SDS011;10284;58.364;15.550;2023-03-01T00:40:28;3.50;;;1.50;;
20251;SDS011;10284;58.364;15.550;2023-03-01T00:42:55;2.22;;;1.30;;
20251;SDS011;10284;58.364;15.550;2023-03-01T00:45:21;1.70;;;1.30;;
20251;SDS011;10284;58.364;15.550;2023-03-01T00:47:46;2.15;;;1.50;;
20251;SDS011;10284;58.364;15.550;2023-03-01T00:50:13;2.75;;;1.38;;
20251;SDS011;10284;58.364;15.550;2023-03-01T00:52:38;2.60;;;1.15;;
20251;SDS011;10284;58.364;15.550;2023-03-01T00:55:04;2.42;;;1.30;;
20251;SDS011;10284;58.364;15.550;2023-03-01T00:57:30;1.60;;;1.25;;
20251;SDS011;10284;58.364;15.550;2023-03-01T00:59:56;1.20;;;1.10;;
20251;SDS011;10284;58.364;15.550;2023-03-01T01:02:21;4.28;;;1.58;;
20251;SDS011;10284;58.364;15.550;2023-03-01T01:04:47;2.47;;;1.50;;
20251;SDS011;10284;58.364;15.550;2023-03-01T01:07:13;3.60;;;1.30;;
20251;SDS011;10284;58.364;15.550;2023-03-01T01:09:38;1.38;;;1.00;;
20251;SDS011;10284;58.364;15.550;2023-03-01T01:12:04;2.47;;;1.40;;
20251;SDS011;10284;58.364;15.550;2023-03-01T01:14:29;1.13;;;1.00;;
20251;SDS011;10284;58.364;15.550;2023-03-01T01:16:55;1.83;;;1.10;;
20251;SDS011;10284;58.364;15.550;2023-03-01T01:19:21;2.88;;;1.55;;
20251;SDS011;10284;58.364;15.550;2023-03-01T01:21:47;1.80;;;1.20;;
20251;SDS011;10284;58.364;15.550;2023-03-01T01:24:13;2.95;;;1.20;;
20251;SDS011;10284;58.364;15.550;2023-03-01T01:26:38;1.48;;;1.20;;
20251;SDS011;10284;58.364;15.550;2023-03-01T01:29:04;1.35;;;1.13;;
20251;SDS011;10284;58.364;15.550;2023-03-01T01:31:30;1.55;;;1.08;;
20251;SDS011;10284;58.364;15.550;2023-03-01T01:33:57;1.25;;;1.13;;
20251;SDS011;10284;58.364;15.550;2023-03-01T01:36:23;2.08;;;1.30;;
20251;SDS011;10284;58.364;15.550;2023-03-01T01:38:49;1.38;;;1.10;;
20251;SDS011;10284;58.364;15.550;2023-03-01T01:41:15;1.98;;;1.10;;
20251;SDS011;10284;58.364;15.550;2023-03-01T01:43:42;2.35;;;1.33;;
20251;SDS011;10284;58.364;15.550;2023-03-01T01:46:17;1.83;;;1.10;;
20251;SDS011;10284;58.364;15.550;2023-03-01T01:48:55;2.15;;;1.00;;
20251;SDS011;10284;58.364;15.550;2023-03-01T01:51:24;2.40;;;1.00;;
20251;SDS011;10284;58.364;15.550;2023-03-01T01:53:53;2.88;;;1.13;;
20251;SDS011;10284;58.364;15.550;2023-03-01T01:56:21;1.25;;;1.05;;
20251;SDS011;10284;58.364;15.550;2023-03-01T01:58:48;2.35;;;1.20;;
20251;SDS011;10284;58.364;15.550;2023-03-01T02:01:14;1.52;;;1.08;;
20251;SDS011;10284;58.364;15.550;2023-03-01T02:03:39;1.45;;;1.10;;
20251;SDS011;10284;58.364;15.550;2023-03-01T02:08:42;3.50;;;1.20;;
20251;SDS011;10284;58.364;15.550;2023-03-01T02:11:09;2.33;;;1.30;;
20251;SDS011;10284;58.364;15.550;2023-03-01T02:13:35;2.78;;;1.20;;
20251;SDS011;10284;58.364;15.550;2023-03-01T02:16:05;1.55;;;1.20;;
20251;SDS011;10284;58.364;15.550;2023-03-01T02:18:33;1.60;;;1.13;;
20251;SDS011;10284;58.364;15.550;2023-03-01T02:21:14;2.58;;;1.40;;
20251;SDS011;10284;58.364;15.550;2023-03-01T02:23:41;1.67;;;1.10;;
20251;SDS011;10284;58.364;15.550;2023-03-01T02:28:56;1.63;;;1.00;;
20251;SDS011;10284;58.364;15.550;2023-03-01T02:31:22;1.67;;;1.10;;
20251;SDS011;10284;58.364;15.550;2023-03-01T02:34:06;1.50;;;1.00;;
20251;SDS011;10284;58.364;15.550;2023-03-01T02:36:36;1.75;;;1.10;;
20251;SDS011;10284;58.364;15.550;2023-03-01T02:39:07;1.65;;;1.10;;
20251;SDS011;10284;58.364;15.550;2023-03-01T02:41:39;1.27;;;0.93;;
20251;SDS011;10284;58.364;15.550;2023-03-01T02:44:06;1.85;;;1.08;;
20251;SDS011;10284;58.364;15.550;2023-03-01T02:46:32;4.03;;;1.20;;
20251;SDS011;10284;58.364;15.550;2023-03-01T02:48:58;2.05;;;0.98;;
20251;SDS011;10284;58.364;15.550;2023-03-01T02:56:26;1.88;;;1.08;;
20251;SDS011;10284;58.364;15.550;2023-03-01T02:58:52;2.35;;;0.90;;
20251;SDS011;10284;58.364;15.550;2023-03-01T03:01:18;1.27;;;0.93;;
20251;SDS011;10284;58.364;15.550;2023-03-01T03:03:44;1.73;;;1.27;;
20251;SDS011;10284;58.364;15.550;2023-03-01T03:06:09;1.13;;;0.85;;
20251;SDS011;10284;58.364;15.550;2023-03-01T03:08:35;0.88;;;0.73;;
20251;SDS011;10284;58.364;15.550;2023-03-01T03:11:00;1.33;;;0.85;;
20251;SDS011;10284;58.364;15.550;2023-03-01T03:13:26;1.08;;;0.93;;
20251;SDS011;10284;58.364;15.550;2023-03-01T03:15:53;1.65;;;0.80;;
20251;SDS011;10284;58.364;15.550;2023-03-01T03:18:20;1.38;;;0.90;;
20251;SDS011;10284;58.364;15.550;2023-03-01T03:20:46;0.65;;;0.65;;
20251;SDS011;10284;58.364;15.550;2023-03-01T03:23:12;1.90;;;0.80;;
20251;SDS011;10284;58.364;15.550;2023-03-01T03:25:37;1.42;;;0.80;;
20251;SDS011;10284;58.364;15.550;2023-03-01T03:28:03;1.75;;;0.82;;
20251;SDS011;10284;58.364;15.550;2023-03-01T03:30:34;1.50;;;0.95;;
20251;SDS011;10284;58.364;15.550;2023-03-01T03:33:01;1.45;;;0.93;;
20251;SDS011;10284;58.364;15.550;2023-03-01T03:35:27;1.13;;;0.90;;
20251;SDS011;10284;58.364;15.550;2023-03-01T03:37:58;1.00;;;0.70;;
20251;SDS011;10284;58.364;15.550;2023-03-01T03:40:35;2.35;;;0.70;;
20251;SDS011;10284;58.364;15.550;2023-03-01T03:43:02;1.23;;;0.93;;
20251;SDS011;10284;58.364;15.550;2023-03-01T03:45:28;1.33;;;0.70;;
20251;SDS011;10284;58.364;15.550;2023-03-01T03:47:53;1.10;;;0.70;;
20251;SDS011;10284;58.364;15.550;2023-03-01T03:50:19;0.88;;;0.88;;
20251;SDS011;10284;58.364;15.550;2023-03-01T03:52:44;1.85;;;0.90;;
20251;SDS011;10284;58.364;15.550;2023-03-01T03:55:10;1.95;;;0.90;;
20251;SDS011;10284;58.364;15.550;2023-03-01T03:57:40;1.00;;;0.82;;
20251;SDS011;10284;58.364;15.550;2023-03-01T04:00:07;1.05;;;0.90;;
20251;SDS011;10284;58.364;15.550;2023-03-01T04:02:39;1.52;;;0.90;;
20251;SDS011;10284;58.364;15.550;2023-03-01T04:05:05;2.00;;;0.85;;
20251;SDS011;10284;58.364;15.550;2023-03-01T04:07:31;2.05;;;0.70;;
20251;SDS011;10284;58.364;15.550;2023-03-01T04:09:56;0.85;;;0.77;;
20251;SDS011;10284;58.364;15.550;2023-03-01T04:12:22;0.60;;;0.60;;
20251;SDS011;10284;58.364;15.550;2023-03-01T04:14:48;1.10;;;0.85;;
20251;SDS011;10284;58.364;15.550;2023-03-01T04:17:13;0.85;;;0.80;;
20251;SDS011;10284;58.364;15.550;2023-03-01T04:19:39;1.30;;;0.88;;
20251;SDS011;10284;58.364;15.550;2023-03-01T04:22:04;0.60;;;0.60;;
20251;SDS011;10284;58.364;15.550;2023-03-01T04:24:34;3.55;;;0.88;;
20251;SDS011;10284;58.364;15.550;2023-03-01T04:27:00;2.28;;;0.80;;
20251;SDS011;10284;58.364;15.550;2023-03-01T04:29:26;0.70;;;0.70;;
20251;SDS011;10284;58.364;15.550;2023-03-01T04:31:51;1.40;;;0.90;;
20251;SDS011;10284;58.364;15.550;2023-03-01T04:34:17;0.77;;;0.77;;
20251;SDS011;10284;58.364;15.550;2023-03-01T04:36:43;2.92;;;0.73;;
20251;SDS011;10284;58.364;15.550;2023-03-01T04:39:08;2.90;;;0.80;;
20251;SDS011;10284;58.364;15.550;2023-03-01T04:41:37;0.80;;;0.70;;
20251;SDS011;10284;58.364;15.550;2023-03-01T04:44:04;0.75;;;0.75;;
20251;SDS011;10284;58.364;15.550;2023-03-01T04:46:29;1.00;;;0.70;;
20251;SDS011;10284;58.364;15.550;2023-03-01T04:48:55;0.70;;;0.70;;
20251;SDS011;10284;58.364;15.550;2023-03-01T04:51:20;1.90;;;0.70;;
20251;SDS011;10284;58.364;15.550;2023-03-01T04:53:46;1.38;;;1.02;;
20251;SDS011;10284;58.364;15.550;2023-03-01T04:56:12;2.90;;;0.80;;
20251;SDS011;10284;58.364;15.550;2023-03-01T04:58:42;0.70;;;0.65;;
20251;SDS011;10284;58.364;15.550;2023-03-01T05:01:12;2.20;;;0.70;;
20251;SDS011;10284;58.364;15.550;2023-03-01T05:03:49;1.10;;;0.80;;
20251;SDS011;10284;58.364;15.550;2023-03-01T05:06:16;2.35;;;0.68;;
20251;SDS011;10284;58.364;15.550;2023-03-01T05:08:42;1.70;;;0.73;;
20251;SDS011;10284;58.364;15.550;2023-03-01T05:11:08;0.60;;;0.60;;
20251;SDS011;10284;58.364;15.550;2023-03-01T05:13:34;0.93;;;0.80;;
20251;SDS011;10284;58.364;15.550;2023-03-01T05:16:01;1.77;;;0.80;;
20251;SDS011;10284;58.364;15.550;2023-03-01T05:18:28;1.80;;;0.90;;
20251;SDS011;10284;58.364;15.550;2023-03-01T05:20:56;1.77;;;1.17;;
20251;SDS011;10284;58.364;15.550;2023-03-01T05:23:36;2.28;;;1.25;;
20251;SDS011;10284;58.364;15.550;2023-03-01T05:26:03;2.17;;;1.20;;
20251;SDS011;10284;58.364;15.550;2023-03-01T05:28:29;3.05;;;1.20;;
20251;SDS011;10284;58.364;15.550;2023-03-01T05:30:55;1.27;;;1.00;;
20251;SDS011;10284;58.364;15.550;2023-03-01T05:33:22;1.83;;;1.05;;
20251;SDS011;10284;58.364;15.550;2023-03-01T05:35:48;0.88;;;0.80;;
20251;SDS011;10284;58.364;15.550;2023-03-01T05:38:14;1.10;;;0.88;;
20251;SDS011;10284;58.364;15.550;2023-03-01T05:40:40;3.78;;;0.82;;
20251;SDS011;10284;58.364;15.550;2023-03-01T05:43:07;1.60;;;0.80;;
20251;SDS011;10284;58.364;15.550;2023-03-01T05:45:32;1.08;;;0.93;;
20251;SDS011;10284;58.364;15.550;2023-03-01T05:47:58;4.72;;;1.10;;
20251;SDS011;10284;58.364;15.550;2023-03-01T05:50:27;1.30;;;0.80;;
20251;SDS011;10284;58.364;15.550;2023-03-01T05:52:58;0.70;;;0.70;;
20251;SDS011;10284;58.364;15.550;2023-03-01T05:55:37;1.00;;;0.73;;
20251;SDS011;10284;58.364;15.550;2023-03-01T05:58:04;3.17;;;1.00;;
20251;SDS011;10284;58.364;15.550;2023-03-01T06:00:32;0.82;;;0.73;;
20251;SDS011;10284;58.364;15.550;2023-03-01T06:02:58;0.70;;;0.70;;
20251;SDS011;10284;58.364;15.550;2023-03-01T06:05:24;3.13;;;0.80;;
20251;SDS011;10284;58.364;15.550;2023-03-01T06:07:50;1.75;;;0.80;;
20251;SDS011;10284;58.364;15.550;2023-03-01T06:10:16;1.00;;;0.75;;
20251;SDS011;10284;58.364;15.550;2023-03-01T06:12:42;1.85;;;0.73;;
20251;SDS011;10284;58.364;15.550;2023-03-01T06:15:09;1.42;;;0.80;;
20251;SDS011;10284;58.364;15.550;2023-03-01T06:17:37;1.30;;;0.73;;
20251;SDS011;10284;58.364;15.550;2023-03-01T06:20:08;0.70;;;0.70;;
20251;SDS011;10284;58.364;15.550;2023-03-01T06:22:36;1.00;;;0.70;;
20251;SDS011;10284;58.364;15.550;2023-03-01T06:25:02;2.40;;;1.00;;
20251;SDS011;10284;58.364;15.550;2023-03-01T06:27:28;1.73;;;0.90;;
20251;SDS011;10284;58.364;15.550;2023-03-01T06:29:54;1.15;;;0.90;;
20251;SDS011;10284;58.364;15.550;2023-03-01T06:32:19;1.20;;;1.00;;
20251;SDS011;10284;58.364;15.550;2023-03-01T06:34:45;3.78;;;1.10;;
20251;SDS011;10284;58.364;15.550;2023-03-01T06:37:10;1.58;;;0.90;;
20251;SDS011;10284;58.364;15.550;2023-03-01T06:39:36;0.75;;;0.75;;
20251;SDS011;10284;58.364;15.550;2023-03-01T06:42:01;2.72;;;0.93;;
20251;SDS011;10284;58.364;15.550;2023-03-01T06:44:27;2.60;;;0.80;;
20251;SDS011;10284;58.364;15.550;2023-03-01T06:46:53;2.63;;;0.75;;
20251;SDS011;10284;58.364;15.550;2023-03-01T06:49:18;2.22;;;0.90;;
20251;SDS011;10284;58.364;15.550;2023-03-01T06:51:45;1.08;;;0.73;;
20251;SDS011;10284;58.364;15.550;2023-03-01T06:54:11;1.25;;;1.00;;
20251;SDS011;10284;58.364;15.550;2023-03-01T06:56:36;3.13;;;1.00;;
20251;SDS011;10284;58.364;15.550;2023-03-01T06:59:02;4.38;;;1.17;;
20251;SDS011;10284;58.364;15.550;2023-03-01T07:01:27;1.50;;;1.25;;
20251;SDS011;10284;58.364;15.550;2023-03-01T07:03:53;2.10;;;1.33;;
20251;SDS011;10284;58.364;15.550;2023-03-01T07:06:19;2.85;;;1.70;;
20251;SDS011;10284;58.364;15.550;2023-03-01T07:08:44;3.47;;;1.73;;
20251;SDS011;10284;58.364;15.550;2023-03-01T07:11:10;4.25;;;2.00;;
20251;SDS011;10284;58.364;15.550;2023-03-01T07:13:35;2.88;;;1.70;;
20251;SDS011;10284;58.364;15.550;2023-03-01T07:16:01;2.80;;;1.90;;
20251;SDS011;10284;58.364;15.550;2023-03-01T07:18:26;2.58;;;1.58;;
20251;SDS011;10284;58.364;15.550;2023-03-01T07:20:51;2.33;;;1.90;;
20251;SDS011;10284;58.364;15.550;2023-03-01T07:23:18;2.83;;;1.67;;
20251;SDS011;10284;58.364;15.550;2023-03-01T07:25:43;2.38;;;1.65;;
20251;SDS011;10284;58.364;15.550;2023-03-01T07:28:09;2.53;;;1.52;;
20251;SDS011;10284;58.364;15.550;2023-03-01T07:30:34;2.30;;;1.65;;
20251;SDS011;10284;58.364;15.550;2023-03-01T07:33:00;1.98;;;1.58;;
20251;SDS011;10284;58.364;15.550;2023-03-01T07:35:26;3.53;;;1.58;;
20251;SDS011;10284;58.364;15.550;2023-03-01T07:37:51;2.97;;;1.70;;
20251;SDS011;10284;58.364;15.550;2023-03-01T07:40:18;1.77;;;1.33;;
20251;SDS011;10284;58.364;15.550;2023-03-01T07:42:44;2.80;;;1.20;;
20251;SDS011;10284;58.364;15.550;2023-03-01T07:45:09;3.92;;;1.20;;
20251;SDS011;10284;58.364;15.550;2023-03-01T07:47:35;0.98;;;0.90;;
20251;SDS011;10284;58.364;15.550;2023-03-01T07:50:01;1.88;;;0.93;;
20251;SDS011;10284;58.364;15.550;2023-03-01T07:52:27;1.98;;;1.00;;
20251;SDS011;10284;58.364;15.550;2023-03-01T07:54:53;2.70;;;1.40;;
20251;SDS011;10284;58.364;15.550;2023-03-01T07:57:18;1.55;;;1.00;;
20251;SDS011;10284;58.364;15.550;2023-03-01T07:59:44;2.08;;;1.30;;
20251;SDS011;10284;58.364;15.550;2023-03-01T08:02:10;2.20;;;1.05;;
20251;SDS011;10284;58.364;15.550;2023-03-01T08:04:35;1.10;;;1.00;;
20251;SDS011;10284;58.364;15.550;2023-03-01T08:07:01;1.63;;;1.08;;
20251;SDS011;10284;58.364;15.550;2023-03-01T08:09:26;1.23;;;0.90;;
20251;SDS011;10284;58.364;15.550;2023-03-01T08:11:52;2.28;;;0.93;;
20251;SDS011;10284;58.364;15.550;2023-03-01T08:14:17;1.95;;;1.23;;
20251;SDS011;10284;58.364;15.550;2023-03-01T08:16:42;3.28;;;1.10;;
20251;SDS011;10284;58.364;15.550;2023-03-01T08:19:09;2.70;;;1.10;;
20251;SDS011;10284;58.364;15.550;2023-03-01T08:21:36;2.92;;;1.00;;
20251;SDS011;10284;58.364;15.550;2023-03-01T08:24:02;2.25;;;1.00;;
20251;SDS011;10284;58.364;15.550;2023-03-01T08:26:29;3.17;;;1.20;;
20251;SDS011;10284;58.364;15.550;2023-03-01T08:28:54;1.52;;;1.17;;
20251;SDS011;10284;58.364;15.550;2023-03-01T08:31:24;3.22;;;1.50;;
20251;SDS011;10284;58.364;15.550;2023-03-01T08:33:56;2.10;;;1.40;;
20251;SDS011;10284;58.364;15.550;2023-03-01T08:36:24;1.45;;;1.33;;
20251;SDS011;10284;58.364;15.550;2023-03-01T08:38:51;2.08;;;1.30;;
20251;SDS011;10284;58.364;15.550;2023-03-01T08:41:16;1.48;;;1.00;;
20251;SDS011;10284;58.364;15.550;2023-03-01T08:43:42;0.85;;;0.85;;
20251;SDS011;10284;58.364;15.550;2023-03-01T08:46:08;2.03;;;0.73;;
20251;SDS011;10284;58.364;15.550;2023-03-01T08:48:34;1.88;;;0.90;;
20251;SDS011;10284;58.364;15.550;2023-03-01T08:53:35;2.63;;;1.10;;
20251;SDS011;10284;58.364;15.550;2023-03-01T08:56:00;0.70;;;0.70;;
20251;SDS011;10284;58.364;15.550;2023-03-01T08:58:27;3.50;;;0.95;;
20251;SDS011;10284;58.364;15.550;2023-03-01T09:00:53;1.65;;;0.77;;
20251;SDS011;10284;58.364;15.550;2023-03-01T09:03:18;3.85;;;1.00;;
20251;SDS011;10284;58.364;15.550;2023-03-01T09:05:44;2.13;;;0.90;;
20251;SDS011;10284;58.364;15.550;2023-03-01T09:08:10;1.85;;;0.80;;
20251;SDS011;10284;58.364;15.550;2023-03-01T09:10:39;3.35;;;1.10;;
20251;SDS011;10284;58.364;15.550;2023-03-01T09:13:05;2.83;;;0.90;;
20251;SDS011;10284;58.364;15.550;2023-03-01T09:15:30;1.42;;;0.65;;
20251;SDS011;10284;58.364;15.550;2023-03-01T09:17:56;0.77;;;0.60;;
20251;SDS011;10284;58.364;15.550;2023-03-01T09:20:21;1.35;;;0.60;;
20251;SDS011;10284;58.364;15.550;2023-03-01T09:22:46;1.02;;;0.60;;
20251;SDS011;10284;58.364;15.550;2023-03-01T09:25:12;1.65;;;0.70;;
20251;SDS011;10284;58.364;15.550;2023-03-01T09:27:37;2.30;;;0.93;;
20251;SDS011;10284;58.364;15.550;2023-03-01T09:30:03;0.98;;;0.70;;
20251;SDS011;10284;58.364;15.550;2023-03-01T09:32:30;2.10;;;0.70;;
20251;SDS011;10284;58.364;15.550;2023-03-01T09:34:56;0.90;;;0.65;;
20251;SDS011;10284;58.364;15.550;2023-03-01T09:37:33;1.20;;;0.80;;
20251;SDS011;10284;58.364;15.550;2023-03-01T09:39:59;2.70;;;0.70;;
20251;SDS011;10284;58.364;15.550;2023-03-01T09:42:25;2.45;;;0.80;;
20251;SDS011;10284;58.364;15.550;2023-03-01T09:44:59;1.05;;;0.60;;
20251;SDS011;10284;58.364;15.550;2023-03-01T09:47:29;0.80;;;0.80;;
20251;SDS011;10284;58.364;15.550;2023-03-01T09:55:45;1.45;;;0.93;;
20251;SDS011;10284;58.364;15.550;2023-03-01T10:06:44;2.33;;;1.25;;
20251;SDS011;10284;58.364;15.550;2023-03-01T10:09:34;2.28;;;1.00;;
20251;SDS011;10284;58.364;15.550;2023-03-01T10:12:02;2.00;;;1.00;;
20251;SDS011;10284;58.364;15.550;2023-03-01T10:14:34;2.47;;;1.08;;
20251;SDS011;10284;58.364;15.550;2023-03-01T10:17:08;1.65;;;1.20;;
20251;SDS011;10284;58.364;15.550;2023-03-01T10:19:43;1.92;;;0.82;;
20251;SDS011;10284;58.364;15.550;2023-03-01T10:22:12;0.95;;;0.70;;
20251;SDS011;10284;58.364;15.550;2023-03-01T10:24:46;2.03;;;0.68;;
20251;SDS011;10284;58.364;15.550;2023-03-01T10:32:38;2.40;;;0.70;;
20251;SDS011;10284;58.364;15.550;2023-03-01T10:35:20;3.72;;;0.70;;
20251;SDS011;10284;58.364;15.550;2023-03-01T10:40:22;1.00;;;0.60;;
20251;SDS011;10284;58.364;15.550;2023-03-01T10:42:49;1.10;;;0.52;;
20251;SDS011;10284;58.364;15.550;2023-03-01T10:47:40;1.42;;;0.45;;
20251;SDS011;10284;58.364;15.550;2023-03-01T10:50:08;1.35;;;0.50;;
20251;SDS011;10284;58.364;15.550;2023-03-01T10:52:47;1.52;;;0.50;;
20251;SDS011;10284;58.364;15.550;2023-03-01T10:55:35;2.40;;;0.52;;
20251;SDS011;10284;58.364;15.550;2023-03-01T11:00:33;0.60;;;0.30;;
20251;SDS011;10284;58.364;15.550;2023-03-01T11:05:24;1.45;;;0.50;;
20251;SDS011;10284;58.364;15.550;2023-03-01T11:07:54;1.00;;;0.50;;
20251;SDS011;10284;58.364;15.550;2023-03-01T11:10:28;0.52;;;0.40;;
20251;SDS011;10284;58.364;15.550;2023-03-01T11:13:06;0.52;;;0.50;;
20251;SDS011;10284;58.364;15.550;2023-03-01T11:15:33;1.95;;;0.50;;
20251;SDS011;10284;58.364;15.550;2023-03-01T11:17:59;2.85;;;0.73;;
20251;SDS011;10284;58.364;15.550;2023-03-01T11:23:33;0.95;;;0.40;;
20251;SDS011;10284;58.364;15.550;2023-03-01T11:25:41;0.60;;;0.30;;
20251;SDS011;10284;58.364;15.550;2023-03-01T11:28:11;1.75;;;0.50;;
20251;SDS011;10284;58.364;15.550;2023-03-01T11:31:00;0.38;;;0.32;;
20251;SDS011;10284;58.364;15.550;2023-03-01T11:33:34;0.47;;;0.40;;
20251;SDS011;10284;58.364;15.550;2023-03-01T11:38:55;0.82;;;0.60;;
20251;SDS011;10284;58.364;15.550;2023-03-01T11:41:31;2.25;;;0.50;;
20251;SDS011;10284;58.364;15.550;2023-03-01T11:44:00;0.40;;;0.40;;
20251;SDS011;10284;58.364;15.550;2023-03-01T11:46:40;0.52;;;0.30;;
20251;SDS011;10284;58.364;15.550;2023-03-01T12:08:37;0.40;;;0.30;;
20251;SDS011;10284;58.364;15.550;2023-03-01T12:32:47;1.27;;;0.50;;
20251;SDS011;10284;58.364;15.550;2023-03-01T12:35:33;0.35;;;0.35;;
20251;SDS011;10284;58.364;15.550;2023-03-01T12:38:06;1.50;;;0.45;;
20251;SDS011;10284;58.364;15.550;2023-03-01T12:40:48;1.77;;;0.47;;
20251;SDS011;10284;58.364;15.550;2023-03-01T12:43:51;0.30;;;0.30;;
20251;SDS011;10284;58.364;15.550;2023-03-01T12:46:35;0.98;;;0.50;;
20251;SDS011;10284;58.364;15.550;2023-03-01T12:49:28;2.03;;;0.60;;
20251;SDS011;10284;58.364;15.550;2023-03-01T12:52:03;0.98;;;0.40;;
20251;SDS011;10284;58.364;15.550;2023-03-01T12:57:11;2.25;;;0.50;;
20251;SDS011;10284;58.364;15.550;2023-03-01T13:10:38;0.82;;;0.50;;
20251;SDS011;10284;58.364;15.550;2023-03-01T13:15:45;0.40;;;0.40;;
20251;SDS011;10284;58.364;15.550;2023-03-01T13:28:40;1.00;;;0.60;;
20251;SDS011;10284;58.364;15.550;2023-03-01T13:33:57;1.80;;;0.68;;
20251;SDS011;10284;58.364;15.550;2023-03-01T13:46:45;2.60;;;0.85;;
20251;SDS011;10284;58.364;15.550;2023-03-01T13:49:13;1.08;;;0.80;;
20251;SDS011;10284;58.364;15.550;2023-03-01T13:51:39;1.05;;;0.57;;
20251;SDS011;10284;58.364;15.550;2023-03-01T13:54:09;0.52;;;0.52;;
20251;SDS011;10284;58.364;15.550;2023-03-01T13:56:37;1.83;;;0.60;;
20251;SDS011;10284;58.364;15.550;2023-03-01T13:59:06;0.82;;;0.60;;
20251;SDS011;10284;58.364;15.550;2023-03-01T14:01:42;1.85;;;0.57;;
20251;SDS011;10284;58.364;15.550;2023-03-01T14:04:21;3.00;;;0.70;;
20251;SDS011;10284;58.364;15.550;2023-03-01T14:06:52;1.52;;;0.57;;
20251;SDS011;10284;58.364;15.550;2023-03-01T14:09:27;2.67;;;0.70;;
20251;SDS011;10284;58.364;15.550;2023-03-01T14:11:57;0.57;;;0.50;;
20251;SDS011;10284;58.364;15.550;2023-03-01T14:14:52;1.88;;;0.60;;
20251;SDS011;10284;58.364;15.550;2023-03-01T14:17:43;2.00;;;0.53;;
20251;SDS011;10284;58.364;15.550;2023-03-01T14:20:26;1.20;;;0.52;;
20251;SDS011;10284;58.364;15.550;2023-03-01T14:22:53;1.60;;;0.50;;
20251;SDS011;10284;58.364;15.550;2023-03-01T14:25:25;0.70;;;0.50;;
20251;SDS011;10284;58.364;15.550;2023-03-01T14:30:40;0.82;;;0.40;;
20251;SDS011;10284;58.364;15.550;2023-03-01T14:33:18;0.93;;;0.30;;
20251;SDS011;10284;58.364;15.550;2023-03-01T14:35:55;0.90;;;0.52;;
20251;SDS011;10284;58.364;15.550;2023-03-01T14:38:33;1.27;;;0.40;;
20251;SDS011;10284;58.364;15.550;2023-03-01T14:41:10;1.93;;;0.50;;
20251;SDS011;10284;58.364;15.550;2023-03-01T14:43:38;0.70;;;0.40;;
20251;SDS011;10284;58.364;15.550;2023-03-01T14:46:15;1.58;;;0.52;;
20251;SDS011;10284;58.364;15.550;2023-03-01T14:48:42;0.50;;;0.40;;
20251;SDS011;10284;58.364;15.550;2023-03-01T14:51:09;0.65;;;0.60;;
20251;SDS011;10284;58.364;15.550;2023-03-01T14:53:35;0.40;;;0.40;;
20251;SDS011;10284;58.364;15.550;2023-03-01T14:56:01;0.70;;;0.40;;
20251;SDS011;10284;58.364;15.550;2023-03-01T14:58:27;0.55;;;0.52;;
20251;SDS011;10284;58.364;15.550;2023-03-01T15:00:57;1.98;;;0.50;;
20251;SDS011;10284;58.364;15.550;2023-03-01T15:05:56;1.52;;;0.30;;
20251;SDS011;10284;58.364;15.550;2023-03-01T15:08:23;2.72;;;0.45;;
20251;SDS011;10284;58.364;15.550;2023-03-01T15:10:57;0.68;;;0.50;;
20251;SDS011;10284;58.364;15.550;2023-03-01T15:13:23;0.35;;;0.32;;
20251;SDS011;10284;58.364;15.550;2023-03-01T15:15:50;0.40;;;0.40;;
20251;SDS011;10284;58.364;15.550;2023-03-01T15:18:21;0.30;;;0.30;;
20251;SDS011;10284;58.364;15.550;2023-03-01T15:20:49;0.57;;;0.40;;
20251;SDS011;10284;58.364;15.550;2023-03-01T15:23:22;1.70;;;0.40;;
20251;SDS011;10284;58.364;15.550;2023-03-01T15:25:52;0.68;;;0.55;;
20251;SDS011;10284;58.364;15.550;2023-03-01T15:28:22;0.65;;;0.50;;
20251;SDS011;10284;58.364;15.550;2023-03-01T15:33:43;1.40;;;1.10;;
20251;SDS011;10284;58.364;15.550;2023-03-01T15:39:02;2.30;;;1.15;;
20251;SDS011;10284;58.364;15.550;2023-03-01T15:41:29;1.13;;;0.77;;
20251;SDS011;10284;58.364;15.550;2023-03-01T15:43:57;0.95;;;0.60;;
20251;SDS011;10284;58.364;15.550;2023-03-01T15:48:55;1.08;;;0.60;;
20251;SDS011;10284;58.364;15.550;2023-03-01T15:51:31;2.58;;;1.05;;
20251;SDS011;10284;58.364;15.550;2023-03-01T15:54:00;1.33;;;0.60;;
20251;SDS011;10284;58.364;15.550;2023-03-01T15:56:28;0.50;;;0.50;;
20251;SDS011;10284;58.364;15.550;2023-03-01T15:58:56;1.73;;;0.80;;
20251;SDS011;10284;58.364;15.550;2023-03-01T16:01:23;1.27;;;0.90;;
20251;SDS011;10284;58.364;15.550;2023-03-01T16:03:48;0.50;;;0.40;;
20251;SDS011;10284;58.364;15.550;2023-03-01T16:06:14;1.48;;;0.45;;
20251;SDS011;10284;58.364;15.550;2023-03-01T16:08:39;1.10;;;0.50;;
20251;SDS011;10284;58.364;15.550;2023-03-01T16:11:09;2.75;;;1.70;;
20251;SDS011;10284;58.364;15.550;2023-03-01T16:13:41;1.42;;;0.50;;
20251;SDS011;10284;58.364;15.550;2023-03-01T16:16:06;1.00;;;0.70;;
20251;SDS011;10284;58.364;15.550;2023-03-01T16:18:34;1.23;;;0.70;;
20251;SDS011;10284;58.364;15.550;2023-03-01T16:20:59;0.82;;;0.70;;
20251;SDS011;10284;58.364;15.550;2023-03-01T16:23:25;0.63;;;0.63;;
20251;SDS011;10284;58.364;15.550;2023-03-01T16:25:50;0.50;;;0.50;;
20251;SDS011;10284;58.364;15.550;2023-03-01T16:28:16;1.48;;;0.73;;
20251;SDS011;10284;58.364;15.550;2023-03-01T16:30:44;2.70;;;0.77;;
20251;SDS011;10284;58.364;15.550;2023-03-01T16:33:12;0.80;;;0.63;;
20251;SDS011;10284;58.364;15.550;2023-03-01T16:35:39;1.30;;;0.70;;
20251;SDS011;10284;58.364;15.550;2023-03-01T16:38:05;3.35;;;1.20;;
20251;SDS011;10284;58.364;15.550;2023-03-01T16:40:30;4.25;;;0.90;;
20251;SDS011;10284;58.364;15.550;2023-03-01T16:42:56;1.13;;;0.70;;
20251;SDS011;10284;58.364;15.550;2023-03-01T16:45:25;1.10;;;0.70;;
20251;SDS011;10284;58.364;15.550;2023-03-01T16:47:51;1.58;;;0.88;;
20251;SDS011;10284;58.364;15.550;2023-03-01T16:50:18;1.85;;;0.80;;
20251;SDS011;10284;58.364;15.550;2023-03-01T16:52:43;2.47;;;0.73;;
20251;SDS011;10284;58.364;15.550;2023-03-01T16:55:10;0.93;;;0.70;;
20251;SDS011;10284;58.364;15.550;2023-03-01T16:57:36;1.05;;;0.50;;
20251;SDS011;10284;58.364;15.550;2023-03-01T17:00:06;1.60;;;0.70;;
20251;SDS011;10284;58.364;15.550;2023-03-01T17:02:36;0.80;;;0.80;;